Weather reports worldwide

Advertisment
Monte Scuro, Italy (16344): temperature & dewpoint: 13.11.2019 19:00:00 - 19.11.2019 19:00:00 (CET)Monte Scuro, Italy (16344): wind speed: 13.11.2019 19:00:00 - 19.11.2019 19:00:00 (CET)Monte Scuro, Italy (16344): wind direction: 13.11.2019 19:00:00 - 19.11.2019 19:00:00 (CET)Monte Scuro, Italy (16344): visibility: 13.11.2019 19:00:00 - 19.11.2019 19:00:00 (CET)Monte Scuro, Italy (16344): sunshine duration: 13.11.2019 19:00:00 - 19.11.2019 19:00:00 (CET)
Date & Time tt [°C] td [°C] ff [km/h] ff [kn] dd vv [km] sd [min]
19.11.2019 19:00:00 4,8 -0,2 13 7 W 10 -
19.11.2019 18:00:00 5,2 5,2 11 6 W 10 -
19.11.2019 17:00:00 5,4 0,4 13 7 E 10 -
19.11.2019 16:00:00 6,0 0,6 11 6 ENE 10 12
19.11.2019 15:00:00 7,2 0,0 15 8 ENE 10 0
19.11.2019 14:00:00 8,0 -3,2 15 8 ENE 10 24
19.11.2019 13:00:00 8,2 0,4 0 0 N 10 30
19.11.2019 12:00:00 8,2 -4,0 8 4 ENE 10 48
19.11.2019 11:00:00 8,0 -4,8 13 7 ENE 10 24
19.11.2019 10:00:00 7,4 -2,9 13 7 NE 20 12
19.11.2019 09:00:00 7,0 -1,9 11 6 NE 20 24
19.11.2019 08:00:00 5,2 -4,1 15 8 NE 15 18
19.11.2019 07:00:00 4,4 -2,9 4 2 N 15 0
19.11.2019 06:00:00 5,2 -9,0 21 11 SW 10 -
19.11.2019 05:00:00 5,0 -9,5 18 10 SW 10 -
19.11.2019 04:00:00 5,0 -10,3 26 14 W 10 -
19.11.2019 03:00:00 4,4 -6,8 24 13 WSW 10 -
19.11.2019 02:00:00 4,6 -6,3 26 14 WSW 10 -
19.11.2019 01:00:00 4,8 -6,7 24 13 SW 10 -
19.11.2019 00:00:00 5,0 -7,5 29 16 SSW 10 -
18.11.2019 23:00:00 5,0 -11,1 29 16 SSW 10 -
18.11.2019 22:00:00 4,8 -7,6 29 16 ENE 10 -
18.11.2019 21:00:00 5,0 -7,5 24 13 WSW 10 -
18.11.2019 20:00:00 4,8 -7,0 18 10 SW 10 -
18.11.2019 19:00:00 5,0 -5,9 15 8 W 10 -
18.11.2019 18:00:00 5,2 2,0 15 8 W 10 -
18.11.2019 17:00:00 6,0 4,5 21 11 W - -
18.11.2019 16:00:00 6,8 4,6 21 11 WSW - 0
18.11.2019 15:00:00 7,2 2,7 28 15 W 10 48
18.11.2019 14:00:00 8,0 1,8 22 12 WSW 20 60
18.11.2019 13:00:00 6,4 2,7 22 12 WSW 20 60
18.11.2019 12:00:00 6,4 1,9 18 10 W 20 60
18.11.2019 11:00:00 5,4 1,3 21 11 WSW 15 60
18.11.2019 10:00:00 4,0 0,9 22 12 S 10 60
18.11.2019 09:00:00 3,4 1,1 26 14 S 10 12
18.11.2019 08:00:00 3,0 1,5 37 20 S 10 12
18.11.2019 07:00:00 12,0 12,0 22 12 S - 0
18.11.2019 06:00:00 3,0 3,0 22 12 SSE - -
18.11.2019 05:00:00 3,0 3,0 37 20 SSE - -
18.11.2019 04:00:00 3,0 3,0 37 20 SSE - -
18.11.2019 03:00:00 3,0 3,0 37 20 SE - -
18.11.2019 02:00:00 3,0 3,0 37 20 SSE - -
18.11.2019 01:00:00 2,8 2,8 46 25 SSE - -
18.11.2019 00:00:00 3,0 3,0 37 20 SSE - -
17.11.2019 23:00:00 3,0 3,0 37 20 ESE - -
17.11.2019 22:00:00 3,8 3,8 28 15 ESE - -
17.11.2019 21:00:00 4,0 4,0 37 20 ESE - -
17.11.2019 20:00:00 4,0 2,2 26 14 SSE 10 -
17.11.2019 19:00:00 4,8 4,8 26 14 ESE - -
17.11.2019 18:00:00 5,2 5,2 37 20 ESE - -
17.11.2019 17:00:00 5,4 5,4 22 12 ESE - -
17.11.2019 16:00:00 6,0 6,0 22 12 ESE - 0
17.11.2019 15:00:00 6,0 6,0 37 20 ESE - 0
17.11.2019 14:00:00 9,0 7,1 34 18 ESE 10 0
17.11.2019 13:00:00 9,0 5,7 37 20 E 10 0
17.11.2019 12:00:00 9,0 5,4 55 30 E 10 24
17.11.2019 11:00:00 9,0 5,4 46 25 E 10 30
17.11.2019 10:00:00 8,2 5,7 55 30 E 20 48
17.11.2019 09:00:00 7,6 5,2 55 30 E 20 0
17.11.2019 08:00:00 7,2 4,5 59 32 ESE 20 0
17.11.2019 07:00:00 7,2 4,9 65 35 ESE 20 0
17.11.2019 06:00:00 7,6 6,1 65 35 SE 10 -
17.11.2019 05:00:00 7,6 5,1 65 35 SE 10 -
17.11.2019 04:00:00 7,0 4,8 65 35 SE 10 -
17.11.2019 03:00:00 7,0 5,0 65 35 SE 10 -
17.11.2019 02:00:00 6,8 4,3 65 35 SE 10 -
17.11.2019 01:00:00 6,8 4,6 65 35 SE 10 -
17.11.2019 00:00:00 6,8 4,3 55 30 ESE 10 -
16.11.2019 23:00:00 6,8 3,2 55 30 SE 10 -
16.11.2019 22:00:00 6,8 4,3 59 32 SE 10 -
16.11.2019 21:00:00 7,0 4,1 55 30 SE 10 -
16.11.2019 20:00:00 7,2 5,2 46 25 ESE 10 -
16.11.2019 19:00:00 7,2 4,5 46 25 E 10 -
16.11.2019 18:00:00 7,4 4,4 48 26 SE 10 -
16.11.2019 17:00:00 7,6 4,4 46 25 ESE 15 24
16.11.2019 16:00:00 8,4 4,6 48 26 ESE 20 60
16.11.2019 15:00:00 9,0 5,9 46 25 E 20 36
16.11.2019 14:00:00 9,0 5,2 42 23 E 20 18
16.11.2019 13:00:00 8,8 5,4 46 25 E 20 0
16.11.2019 12:00:00 8,8 4,8 46 25 E 20 0
16.11.2019 11:00:00 8,8 5,4 46 25 E 20 0
16.11.2019 10:00:00 9,4 5,4 46 25 E 20 0
16.11.2019 09:00:00 8,6 4,2 46 25 ESE 20 0
16.11.2019 08:00:00 9,0 -2,0 34 18 SSE 20 0
16.11.2019 07:00:00 7,6 0,3 46 25 SSE 15 0
16.11.2019 06:00:00 7,0 2,5 46 25 SSW 10 -
16.11.2019 05:00:00 7,2 2,1 46 25 S 10 -
16.11.2019 04:00:00 7,2 2,1 48 26 S 10 -
16.11.2019 03:00:00 8,0 -0,2 46 25 SW 10 -
16.11.2019 02:00:00 4,0 -4,5 52 28 SW 10 -
16.11.2019 01:00:00 8,0 -0,7 46 25 SW 10 -
16.11.2019 00:00:00 8,4 -0,9 46 25 SW 10 -
15.11.2019 23:00:00 8,4 -0,4 46 25 SW 10 -
15.11.2019 22:00:00 8,8 -0,5 41 22 WSW 10 -
15.11.2019 21:00:00 9,0 -0,3 37 20 WSW 15 -
15.11.2019 20:00:00 9,0 -0,1 37 20 WSW 10 -
15.11.2019 19:00:00 9,0 0,4 34 18 W 15 -
15.11.2019 18:00:00 8,8 -0,5 24 13 SSW 15 0
15.11.2019 17:00:00 8,6 -0,7 28 15 SSW 15 12
15.11.2019 16:00:00 8,8 1,9 16 9 WSW 20 60
15.11.2019 15:00:00 9,4 2,9 16 9 WSW 25 60
15.11.2019 14:00:00 10,0 4,8 11 6 W 25 60
15.11.2019 13:00:00 9,6 3,8 11 6 W 25 60
15.11.2019 12:00:00 9,0 2,1 8 4 ENE 20 60
15.11.2019 11:00:00 9,2 -3,4 8 4 ENE 20 48
15.11.2019 10:00:00 9,0 -10,0 15 8 WNW 20 48
15.11.2019 09:00:00 7,4 -7,1 18 10 ENE 20 12
15.11.2019 08:00:00 6,6 -2,3 16 9 ENE 20 0
15.11.2019 07:00:00 6,8 -1,9 15 8 ENE 20 12
15.11.2019 06:00:00 4,8 -1,0 9 5 ENE 10 -
15.11.2019 05:00:00 5,0 3,0 11 6 ENE 10 -
15.11.2019 04:00:00 5,0 -2,1 9 5 E 10 -
15.11.2019 03:00:00 5,0 0,8 8 4 E 10 -
15.11.2019 02:00:00 5,0 -0,8 8 4 E 10 -
15.11.2019 01:00:00 5,0 -0,8 9 5 E 10 -
15.11.2019 00:00:00 5,4 -3,4 9 5 WNW 10 -
14.11.2019 23:00:00 5,0 -0,8 8 4 ENE 10 -
14.11.2019 22:00:00 5,0 -2,1 9 5 ENE 10 -
14.11.2019 21:00:00 5,0 -1,7 8 4 E 10 -
14.11.2019 20:00:00 5,2 -0,8 8 4 SW 10 -
14.11.2019 19:00:00 5,0 1,8 11 6 ENE 10 -
14.11.2019 18:00:00 5,2 2,2 9 5 W 10 -
14.11.2019 17:00:00 6,2 3,5 9 5 W 15 0
14.11.2019 16:00:00 7,0 4,0 9 5 W 15 0
14.11.2019 15:00:00 7,6 3,8 13 7 W 10 6
14.11.2019 14:00:00 7,6 3,7 9 5 W 10 0
14.11.2019 13:00:00 7,4 3,1 13 7 W 6 6
14.11.2019 12:00:00 7,4 3,3 9 5 W 6 18
14.11.2019 11:00:00 7,4 3,3 15 8 W 10 12
14.11.2019 10:00:00 7,0 3,2 9 5 W 15 0
14.11.2019 09:00:00 6,0 3,3 8 4 W 3,0 0
14.11.2019 08:00:00 5,0 3,0 11 6 W 3,0 0
14.11.2019 07:00:00 4,6 3,9 9 5 W - 0
14.11.2019 06:00:00 3,2 1,1 21 11 WNW 10 -
14.11.2019 05:00:00 3,2 0,8 16 9 W 10 -
14.11.2019 04:00:00 3,2 0,1 13 7 W 10 -
14.11.2019 03:00:00 2,8 0,2 16 9 W 10 -
14.11.2019 02:00:00 2,8 -0,8 22 12 W 10 -
14.11.2019 01:00:00 2,8 -0,1 16 9 W 10 -
14.11.2019 00:00:00 3,0 0,9 22 12 W 10 -
13.11.2019 23:00:00 3,0 1,0 21 11 W 10 -
13.11.2019 22:00:00 3,4 3,4 18 10 W - -
13.11.2019 21:00:00 3,6 3,6 24 13 W - -
13.11.2019 20:00:00 4,0 4,0 24 13 W - -
13.11.2019 19:00:00 4,0 4,0 28 15 W - -

tt = temperature
td = dewpoint
ff = wind speed
dd = wind direction
vv = visibility
sd = sunshine duration

Next stations